createdAt,value
2017-12-19T00:03:38.554Z,1026.5
2017-12-19T00:13:52.575Z,1026.6
2017-12-19T00:24:06.511Z,1026.6
2017-12-19T00:34:19.636Z,1026.7
2017-12-19T00:44:33.257Z,1026.8
2017-12-19T00:54:47.143Z,1026.8
2017-12-19T01:05:00.276Z,1026.9
2017-12-19T01:15:13.804Z,1027.2
2017-12-19T01:25:28.108Z,1027.3
2017-12-19T01:35:42.399Z,1027.3
2017-12-19T01:45:56.656Z,1027.3
2017-12-19T01:56:10.550Z,1027.4
2017-12-19T02:06:24.700Z,1027.3
2017-12-19T02:16:37.782Z,1027.3
2017-12-19T02:26:49.538Z,1027.4
2017-12-19T02:37:03.833Z,1027.3
2017-12-19T02:47:18.743Z,1027.3
2017-12-19T02:57:30.282Z,1027.3
2017-12-19T03:07:44.715Z,1027.3
2017-12-19T03:17:58.772Z,1027.3
2017-12-19T03:28:13.108Z,1027.2
2017-12-19T03:38:26.962Z,1027.0
2017-12-19T03:48:41.186Z,1027.0
2017-12-19T03:58:54.830Z,1027.0
2017-12-19T04:09:09.149Z,1027.2
2017-12-19T04:19:54.273Z,1027.4
2017-12-19T04:30:06.065Z,1027.3
2017-12-19T04:40:20.314Z,1027.2
2017-12-19T04:50:34.663Z,1027.5
2017-12-19T05:00:48.681Z,1027.7
2017-12-19T05:11:02.746Z,1027.8
2017-12-19T05:21:16.158Z,1027.8
2017-12-19T05:31:30.166Z,1027.8
2017-12-19T05:41:43.790Z,1028.1
2017-12-19T05:52:29.396Z,1028.1
2017-12-19T06:03:15.095Z,1028.1
2017-12-19T06:13:29.149Z,1028.2
2017-12-19T06:23:42.749Z,1028.3
2017-12-19T06:33:57.021Z,1028.5
2017-12-19T06:44:09.080Z,1028.7
2017-12-19T06:54:23.580Z,1028.5
2017-12-19T07:04:37.873Z,1028.5
2017-12-19T07:14:52.061Z,1028.5
2017-12-19T07:25:06.005Z,1028.6
2017-12-19T07:35:20.464Z,1028.6
2017-12-19T07:45:34.368Z,1028.6
2017-12-19T07:56:19.060Z,1028.6
2017-12-19T08:06:32.528Z,1028.6
2017-12-19T08:16:46.635Z,1028.8
2017-12-19T08:27:00.066Z,1028.8
2017-12-19T08:37:18.863Z,1029.0
2017-12-19T08:47:32.263Z,1029.2
2017-12-19T08:57:45.688Z,1029.2
2017-12-19T09:08:05.913Z,1029.2
2017-12-19T09:18:20.550Z,1029.1
2017-12-19T09:28:34.393Z,1029.2
2017-12-19T09:38:48.484Z,1029.2
2017-12-19T09:49:01.551Z,1029.1
2017-12-19T09:59:46.659Z,1029.2
2017-12-19T10:10:00.720Z,1029.3
2017-12-19T10:20:13.949Z,1029.2
2017-12-19T10:30:28.301Z,1029.3
2017-12-19T10:40:41.832Z,1029.2
2017-12-19T10:50:55.959Z,1029.3
2017-12-19T11:01:09.939Z,1029.2
2017-12-19T11:11:23.634Z,1029.3
2017-12-19T11:21:37.802Z,1029.1
2017-12-19T11:31:51.870Z,1029.0
2017-12-19T11:42:05.317Z,1029.1
2017-12-19T11:52:19.335Z,1028.9
2017-12-19T12:02:32.757Z,1028.8
2017-12-19T12:12:45.965Z,1028.7
2017-12-19T12:22:59.717Z,1028.6
2017-12-19T12:33:13.879Z,1028.6
2017-12-19T12:44:04.543Z,1028.6
2017-12-19T12:54:49.847Z,1028.5
2017-12-19T13:05:03.988Z,1028.4
2017-12-19T13:15:17.782Z,1028.4
2017-12-19T13:25:33.205Z,1028.4
2017-12-19T13:35:47.498Z,1028.3
2017-12-19T13:46:01.528Z,1028.3
2017-12-19T13:56:16.016Z,1028.3
2017-12-19T14:06:29.619Z,1028.4
2017-12-19T14:16:44.078Z,1028.3
2017-12-19T14:26:58.324Z,1028.3
2017-12-19T14:37:12.203Z,1028.2
2017-12-19T14:47:25.600Z,1028.1
2017-12-19T14:57:39.641Z,1028.3
2017-12-19T15:07:51.053Z,1028.0
2017-12-19T15:18:03.899Z,1028.1
2017-12-19T15:28:17.460Z,1028.1
2017-12-19T15:38:33.742Z,1028.0
2017-12-19T15:48:47.784Z,1028.0
2017-12-19T15:59:01.514Z,1028.0
2017-12-19T16:09:15.332Z,1028.0
2017-12-19T16:19:29.047Z,1028.0
2017-12-19T16:29:42.725Z,1028.0
2017-12-19T16:39:56.405Z,1028.1
2017-12-19T16:50:10.671Z,1028.1
2017-12-19T17:00:26.412Z,1028.2
2017-12-19T17:10:38.310Z,1028.1
2017-12-19T17:20:52.550Z,1028.2
2017-12-19T17:31:06.774Z,1028.2
2017-12-19T17:41:20.960Z,1028.3
2017-12-19T17:51:35.136Z,1028.2
2017-12-19T18:01:49.467Z,1028.3
2017-12-19T18:12:04.233Z,1028.2
2017-12-19T18:22:17.953Z,1028.3
2017-12-19T18:32:32.785Z,1028.3
2017-12-19T18:42:46.639Z,1028.2
2017-12-19T18:53:00.611Z,1028.0
2017-12-19T19:03:15.048Z,1028.0
2017-12-19T19:13:29.176Z,1028.0
2017-12-19T19:23:43.640Z,1027.9
2017-12-19T19:33:57.732Z,1027.9
2017-12-19T19:44:59.200Z,1027.9
2017-12-19T19:55:50.703Z,1027.8
2017-12-19T20:06:08.236Z,1027.9
2017-12-19T20:17:04.522Z,1028.0
2017-12-19T20:38:15.091Z,1027.9
2017-12-19T20:48:32.528Z,1027.9
2017-12-19T20:59:48.712Z,1027.9
2017-12-19T21:21:31.469Z,1028.1
2017-12-19T21:42:19.647Z,1028.0
2017-12-19T21:52:45.102Z,1028.0
2017-12-19T22:02:58.920Z,1027.9
2017-12-19T22:13:12.521Z,1028.1
2017-12-19T22:23:37.585Z,1027.9
2017-12-19T22:33:51.815Z,1028.0
2017-12-19T22:44:04.930Z,1028.0
2017-12-19T22:54:18.401Z,1028.0
2017-12-19T23:04:31.503Z,1028.1
2017-12-19T23:15:16.736Z,1028.0
2017-12-19T23:26:02.555Z,1028.0
2017-12-19T23:36:48.084Z,1028.0
2017-12-19T23:47:33.555Z,1027.7
2017-12-19T23:57:46.955Z,1027.5
